Jefferson Hills, Pennsylvania
Current Conditions -  °F | °C
As of 11:53 AM on Saturday 25 Oct 2014 (Local Time) from KAGC Reporting Station
Scattered Clouds Scattered Clouds  
Wind Chill: 59°   Ceiling: Unl
Heat Index: 59°   Visibility: 9mi
Dew Point: 45°   Wind: 15mph
Humidity: 60%   Direction: 230°SW
Pressure: 29.9"   Gusts: 23mph
Location:  40.2958°N, 79.9241°W
Report Text: KAGC 251553Z AUTO 23013G20KT 9SM FEW031 SCT100 15/07 A2990 RMK AO2 SLP129 T01500072 TSNO
Loading
Personal Weather Stations






























Interactive Weather Map New forecast layout! Learn more

10-Day Weather Forecast

Advertisements
Track Severe Weather on mobile